Time;durP1;ratioP1;P1;durP2;ratioP2;P2;SDS_P1;SDS_P2;PMS_P1;PMS_P2;Temp;Humidity;BMP_temperature;BMP_pressure;BME280_temperature;BME280_humidity;BME280_pressure;Samples;Min_cycle;Max_cycle;Signal;HPM_P1;HPM_P2
2023/03/23 00:01:03;;;;;;;10.65;2.08;;;12.70;63.20;;;;;;5009009;28;20049;-77
2023/03/23 00:03:31;;;;;;;7.80;2.35;;;12.70;63.20;;;;;;5003264;28;20032;-78
2023/03/23 00:06:06;;;;;;;7.97;3.58;;;12.70;63.20;;;;;;5011394;28;20047;-76
2023/03/23 00:08:45;;;;;;;10.20;3.00;;;12.60;63.10;;;;;;5022136;28;20029;-78
2023/03/23 00:11:18;;;;;;;10.13;2.80;;;12.60;63.10;;;;;;5020055;28;20386;-78
2023/03/23 00:13:45;;;;;;;;;;;12.60;63.10;;;;;;5020847;28;20036;-77
2023/03/23 00:16:18;;;;;;;12.30;3.05;;;12.60;63.10;;;;;;5027401;28;19913;-77
2023/03/23 00:18:49;;;;;;;5.78;2.50;;;12.60;63.10;;;;;;5020453;28;20095;-76
2023/03/23 00:21:15;;;;;;;7.82;2.13;;;12.50;62.90;;;;;;5017935;28;20473;-78
2023/03/23 00:23:44;;;;;;;8.27;2.38;;;12.50;63.00;;;;;;5022390;28;20041;-79
2023/03/23 00:26:13;;;;;;;9.50;2.90;;;12.50;63.00;;;;;;5003484;28;20036;-78
2023/03/23 00:28:39;;;;;;;12.07;2.42;;;12.50;63.10;;;;;;5021758;28;20432;-78
2023/03/23 00:31:12;;;;;;;10.38;2.17;;;12.40;62.90;;;;;;5002945;28;20049;-77
2023/03/23 00:33:40;;;;;;;8.85;3.20;;;12.40;63.00;;;;;;5023947;28;20102;-78
2023/03/23 00:36:08;;;;;;;10.02;2.92;;;12.40;63.00;;;;;;5024715;28;20065;-79
2023/03/23 00:38:36;;;;;;;11.27;3.30;;;12.40;63.00;;;;;;4967750;28;20569;-78
2023/03/23 00:41:02;;;;;;;9.05;2.45;;;12.40;63.10;;;;;;4982111;28;20809;-78
2023/03/23 00:43:30;;;;;;;9.93;2.72;;;12.40;63.10;;;;;;5021068;28;20536;-77
2023/03/23 00:45:57;;;;;;;12.60;2.85;;;12.40;63.10;;;;;;5002885;28;20041;-78
2023/03/23 00:48:24;;;;;;;9.27;2.45;;;12.30;63.00;;;;;;5022013;28;20505;-78
2023/03/23 00:50:52;;;;;;;8.32;2.28;;;12.40;63.20;;;;;;5008831;28;20045;-78
2023/03/23 00:53:18;;;;;;;11.45;3.15;;;12.30;63.00;;;;;;5015543;28;20030;-79
2023/03/23 00:55:49;;;;;;;11.40;3.05;;;12.30;63.00;;;;;;4998667;28;20429;-77
2023/03/23 00:58:16;;;;;;;8.70;3.15;;;12.30;63.10;;;;;;5014032;28;20262;-78
2023/03/23 01:00:43;;;;;;;10.32;2.25;;;12.20;62.90;;;;;;4992786;28;20115;-78
2023/03/23 01:03:17;;;;;;;10.30;2.38;;;12.30;63.10;;;;;;4998983;28;20029;-79
2023/03/23 01:05:51;;;;;;;8.65;2.50;;;12.20;63.00;;;;;;4992132;28;20489;-78
2023/03/23 01:08:19;;;;;;;12.48;4.30;;;12.20;63.00;;;;;;4993576;28;20481;-78
2023/03/23 01:10:46;;;;;;;8.18;2.28;;;12.20;63.00;;;;;;5001619;28;20124;-79
2023/03/23 01:13:13;;;;;;;10.18;2.70;;;12.20;63.00;;;;;;5018884;28;20037;-78
2023/03/23 01:15:39;;;;;;;8.40;2.63;;;12.10;62.90;;;;;;5020936;28;20128;-78
2023/03/23 01:18:05;;;;;;;9.85;3.60;;;12.10;62.90;;;;;;5014847;28;20620;-78
2023/03/23 01:20:32;;;;;;;13.20;3.20;;;12.10;62.90;;;;;;5002173;28;20265;-78
2023/03/23 01:23:00;;;;;;;7.60;2.58;;;12.10;63.00;;;;;;5002728;28;20029;-77
2023/03/23 01:25:36;;;;;;;8.60;2.85;;;12.00;62.80;;;;;;5020262;28;20064;-76
2023/03/23 01:28:02;;;;;;;12.52;2.83;;;12.00;62.90;;;;;;5001064;28;20040;-77
2023/03/23 01:30:29;;;;;;;11.52;3.40;;;12.00;62.90;;;;;;4991927;28;20389;-78
2023/03/23 01:32:56;;;;;;;10.48;4.25;;;11.90;62.70;;;;;;5022800;28;20507;-79
2023/03/23 01:35:22;;;;;;;10.55;3.05;;;11.90;62.80;;;;;;5014294;28;20033;-79
2023/03/23 01:37:48;;;;;;;10.93;3.45;;;11.80;62.60;;;;;;5024640;28;20447;-79
2023/03/23 01:40:15;;;;;;;15.65;3.45;;;11.80;62.70;;;;;;5028691;28;20025;-79
2023/03/23 01:42:43;;;;;;;10.43;2.17;;;11.80;62.70;;;;;;5007356;28;20034;-81
2023/03/23 01:45:45;;;;;;;11.68;3.05;;;11.70;62.60;;;;;;5006267;28;20030;-79
2023/03/23 01:48:20;;;;;;;10.55;2.63;;;11.70;62.70;;;;;;5016391;28;20045;-79
2023/03/23 01:51:02;;;;;;;10.93;3.33;;;11.70;62.70;;;;;;5013367;28;20041;-80
2023/03/23 01:53:36;;;;;;;12.95;3.53;;;11.60;62.60;;;;;;5009588;28;20041;-78
2023/03/23 01:56:03;;;;;;;;;;;11.60;62.60;;;;;;5027065;28;20120;-77
2023/03/23 01:58:33;;;;;;;8.35;2.28;;;11.60;62.70;;;;;;5025148;28;20427;-78
2023/03/23 02:01:06;;;;;;;8.25;1.90;;;11.50;62.40;;;;;;5020523;28;20499;-77
2023/03/23 02:03:34;;;;;;;10.25;2.90;;;11.50;62.50;;;;;;5024225;28;20571;-78
2023/03/23 02:06:00;;;;;;;13.43;2.90;;;11.50;62.60;;;;;;5025500;28;20034;-77
2023/03/23 02:08:37;;;;;;;10.40;3.38;;;11.40;62.40;;;;;;5006812;28;20076;-77
2023/03/23 02:11:15;;;;;;;9.52;2.35;;;11.40;62.50;;;;;;5006027;28;20535;-78
2023/03/23 02:13:43;;;;;;;12.07;3.60;;;11.40;62.60;;;;;;5019524;28;20124;-77
2023/03/23 02:16:27;;;;;;;12.43;2.88;;;11.40;62.60;;;;;;5023650;28;20488;-78
2023/03/23 02:19:15;;;;;;;12.43;2.88;;;11.40;62.60;;;;;;5021368;28;20180;-78
2023/03/23 02:21:50;;;;;;;9.82;2.92;;;11.30;63.00;;;;;;5016611;28;20037;-79
2023/03/23 02:24:25;;;;;;;8.02;2.47;;;11.30;62.50;;;;;;5006083;28;20124;-78
2023/03/23 02:27:18;;;;;;;9.15;2.45;;;11.30;62.50;;;;;;5005487;28;20025;-77
2023/03/23 02:30:11;;;;;;;10.13;2.87;;;11.20;62.40;;;;;;5000314;28;20084;-77
2023/03/23 02:33:05;;;;;;;11.57;2.72;;;11.20;62.40;;;;;;5017453;28;20297;-78
2023/03/23 02:35:37;;;;;;;10.95;2.60;;;11.20;62.50;;;;;;4992316;28;20152;-77
2023/03/23 02:38:23;;;;;;;9.90;3.03;;;11.20;62.50;;;;;;5012163;28;20151;-79
2023/03/23 02:40:55;;;;;;;10.02;2.45;;;11.10;62.30;;;;;;5032287;28;20030;-79
2023/03/23 02:43:25;;;;;;;8.05;2.35;;;11.10;62.30;;;;;;5017374;28;20547;-78
2023/03/23 02:45:53;;;;;;;10.95;2.83;;;11.10;62.40;;;;;;5006139;28;20121;-78
2023/03/23 02:48:24;;;;;;;11.32;3.45;;;11.10;62.40;;;;;;5007123;28;20088;-78
2023/03/23 02:50:52;;;;;;;10.88;2.10;;;11.00;62.30;;;;;;5006227;28;20034;-78
2023/03/23 02:53:22;;;;;;;8.82;2.25;;;11.00;62.30;;;;;;5020463;28;20029;-77
2023/03/23 02:55:52;;;;;;;10.27;2.95;;;11.00;62.40;;;;;;5006968;28;20029;-80
2023/03/23 02:58:23;;;;;;;11.90;3.03;;;10.90;62.20;;;;;;5009506;28;20060;-79
2023/03/23 03:00:51;;;;;;;10.32;2.88;;;10.90;62.20;;;;;;5009477;28;20099;-80
2023/03/23 03:03:26;;;;;;;12.52;3.67;;;10.90;62.30;;;;;;4993075;28;20112;-78
2023/03/23 03:06:21;;;;;;;10.23;2.63;;;10.90;62.40;;;;;;5015031;28;20033;-78
2023/03/23 03:09:03;;;;;;;13.63;3.50;;;10.80;62.30;;;;;;5028573;28;20041;-78
2023/03/23 03:11:34;;;;;;;7.97;2.60;;;10.80;62.30;;;;;;5014009;28;20057;-79
2023/03/23 03:14:05;;;;;;;9.63;2.83;;;10.80;62.30;;;;;;5027754;28;20123;-79
2023/03/23 03:16:41;;;;;;;12.35;2.53;;;10.70;62.20;;;;;;5029544;28;20041;-76
2023/03/23 03:19:07;;;;;;;8.07;2.90;;;10.70;62.20;;;;;;5040063;28;20038;-79
2023/03/23 03:21:37;;;;;;;14.30;2.35;;;10.70;62.20;;;;;;5012237;28;20060;-79
2023/03/23 03:24:10;;;;;;;8.95;3.58;;;10.70;62.30;;;;;;5018408;28;20501;-79
2023/03/23 03:26:45;;;;;;;15.85;2.72;;;10.70;62.30;;;;;;5010396;28;20045;-79
2023/03/23 03:29:35;;;;;;;11.55;2.15;;;10.70;62.30;;;;;;5012997;28;20069;-79
2023/03/23 03:32:06;;;;;;;;;;;10.60;62.20;;;;;;5008800;28;20466;-79
2023/03/23 03:34:34;;;;;;;9.10;2.10;;;10.60;62.20;;;;;;5010514;28;19971;-78
2023/03/23 03:37:00;;;;;;;10.65;4.22;;;10.60;62.10;;;;;;4971897;28;20022;-77
2023/03/23 03:39:29;;;;;;;7.45;3.75;;;10.60;62.20;;;;;;5005736;28;20037;-80
2023/03/23 03:41:55;;;;;;;9.60;2.90;;;10.50;62.00;;;;;;4992511;28;20061;-78
2023/03/23 03:44:23;;;;;;;8.75;2.05;;;10.50;62.10;;;;;;4991611;28;20040;-76
2023/03/23 03:46:50;;;;;;;10.63;2.58;;;10.50;62.10;;;;;;5017186;28;20041;-78
2023/03/23 03:49:18;;;;;;;11.60;4.82;;;10.50;62.20;;;;;;5039556;28;20420;-78
2023/03/23 03:51:44;;;;;;;6.93;2.55;;;10.50;62.20;;;;;;5033176;28;20133;-78
2023/03/23 03:54:19;;;;;;;9.70;2.15;;;10.50;62.30;;;;;;5039359;28;20029;-77
2023/03/23 03:56:46;;;;;;;10.27;2.20;;;10.40;62.10;;;;;;5020229;28;20038;-78
2023/03/23 03:59:52;;;;;;;9.85;2.90;;;10.40;62.20;;;;;;5035516;28;20044;-78
2023/03/23 04:02:37;;;;;;;10.70;2.22;;;10.40;62.50;;;;;;5041425;28;20508;-82
2023/03/23 04:05:03;;;;;;;8.80;2.63;;;10.40;62.20;;;;;;5026130;28;20040;-78
2023/03/23 04:07:32;;;;;;;7.78;2.10;;;10.30;62.10;;;;;;5059147;28;20116;-80
2023/03/23 04:09:58;;;;;;;8.45;2.10;;;10.30;62.10;;;;;;5041773;28;20037;-80
2023/03/23 04:12:24;;;;;;;7.97;2.38;;;10.30;62.20;;;;;;5038211;28;20389;-77
2023/03/23 04:14:59;;;;;;;7.80;1.83;;;10.30;62.20;;;;;;5032922;28;20033;-77
2023/03/23 04:17:30;;;;;;;8.68;2.30;;;10.30;62.30;;;;;;5031226;28;20469;-77
2023/03/23 04:19:58;;;;;;;9.27;2.80;;;10.30;62.30;;;;;;5024301;28;20168;-78
2023/03/23 04:22:32;;;;;;;8.68;2.17;;;10.20;62.20;;;;;;5029424;28;20072;-78
2023/03/23 04:25:05;;;;;;;8.45;2.20;;;10.20;62.20;;;;;;5023752;28;20379;-77
2023/03/23 04:27:34;;;;;;;9.30;2.35;;;10.20;62.20;;;;;;5004980;28;20140;-78
2023/03/23 04:30:04;;;;;;;6.38;2.13;;;10.20;62.20;;;;;;5018935;28;20125;-78
2023/03/23 04:32:33;;;;;;;11.85;2.35;;;10.20;62.20;;;;;;5017498;28;20081;-77
2023/03/23 04:35:00;;;;;;;9.15;2.67;;;10.20;62.20;;;;;;5022744;28;20373;-78
2023/03/23 04:37:34;;;;;;;12.13;3.67;;;10.10;62.00;;;;;;5003107;28;20052;-78
2023/03/23 04:40:10;;;;;;;7.15;2.35;;;10.10;62.00;;;;;;5022491;28;20520;-78
2023/03/23 04:42:39;;;;;;;10.13;2.45;;;10.10;62.10;;;;;;5022440;28;20362;-78
2023/03/23 04:45:28;;;;;;;7.43;3.30;;;10.10;62.10;;;;;;5036607;28;20069;-79
2023/03/23 04:48:06;;;;;;;8.98;2.85;;;10.00;62.00;;;;;;5023964;28;20044;-78
2023/03/23 04:50:43;;;;;;;6.63;2.00;;;10.00;62.00;;;;;;5025442;28;20529;-79
2023/03/23 04:53:18;;;;;;;7.28;2.50;;;10.00;62.10;;;;;;5026902;28;20037;-79
2023/03/23 04:55:47;;;;;;;11.63;2.20;;;9.90;61.90;;;;;;5023502;28;20052;-79
2023/03/23 04:58:15;;;;;;;8.20;2.88;;;9.90;62.00;;;;;;5007980;28;20037;-78
2023/03/23 05:00:55;;;;;;;12.75;3.45;;;9.90;62.00;;;;;;5022852;28;20044;-78
2023/03/23 05:03:23;;;;;;;6.95;1.88;;;9.80;61.90;;;;;;5017166;28;20152;-76
2023/03/23 05:05:52;;;;;;;6.20;1.98;;;9.80;61.90;;;;;;5020692;28;20180;-77
2023/03/23 05:08:20;;;;;;;11.90;2.83;;;9.80;62.00;;;;;;5023000;28;20172;-78
2023/03/23 05:10:52;;;;;;;11.50;3.08;;;9.80;62.10;;;;;;5005239;28;20528;-77
2023/03/23 05:13:18;;;;;;;14.57;2.78;;;9.80;62.10;;;;;;5021318;28;20040;-77
2023/03/23 05:15:50;;;;;;;12.80;2.60;;;9.80;62.10;;;;;;5023545;28;20249;-78
2023/03/23 05:18:16;;;;;;;9.95;2.50;;;9.80;62.20;;;;;;5025358;28;20038;-78
2023/03/23 05:20:42;;;;;;;7.53;2.22;;;9.80;62.20;;;;;;5019728;28;20055;-78
2023/03/23 05:23:15;;;;;;;;;;;9.70;62.00;;;;;;5021384;28;20105;-80
2023/03/23 05:25:43;;;;;;;9.73;2.20;;;9.80;62.10;;;;;;5017225;28;19919;-79
2023/03/23 05:28:14;;;;;;;10.68;2.33;;;9.80;62.10;;;;;;5025500;28;20739;-78
2023/03/23 05:31:02;;;;;;;12.80;4.03;;;9.80;62.10;;;;;;5023062;28;20044;-78
2023/03/23 05:33:31;;;;;;;8.10;2.45;;;9.80;62.10;;;;;;5022282;28;20507;-78
2023/03/23 05:36:04;;;;;;;13.27;3.63;;;9.80;62.10;;;;;;5020517;28;20057;-77
2023/03/23 05:38:38;;;;;;;8.95;2.25;;;9.80;62.20;;;;;;5022440;28;20447;-78
2023/03/23 05:41:06;;;;;;;10.68;2.95;;;9.80;62.20;;;;;;5025012;28;20107;-79
2023/03/23 05:43:40;;;;;;;9.60;2.05;;;9.80;62.20;;;;;;5022401;28;20064;-80
2023/03/23 05:46:29;;;;;;;11.93;2.88;;;9.80;62.20;;;;;;5011731;28;20501;-78
2023/03/23 05:48:59;;;;;;;12.60;2.28;;;9.80;62.20;;;;;;5026703;28;20053;-77
2023/03/23 05:51:32;;;;;;;11.45;2.88;;;9.80;62.30;;;;;;4997072;28;20568;-78
2023/03/23 05:53:58;;;;;;;15.30;3.00;;;9.80;62.30;;;;;;5025966;28;20113;-76
2023/03/23 05:56:25;;;;;;;9.43;2.40;;;9.90;62.50;;;;;;5017369;28;20041;-78
2023/03/23 05:59:11;;;;;;;9.18;2.90;;;9.80;62.30;;;;;;5023671;28;20035;-78
2023/03/23 06:01:40;;;;;;;11.38;3.28;;;9.80;62.30;;;;;;5010489;28;20198;-78
2023/03/23 06:04:06;;;;;;;11.65;3.38;;;9.90;62.50;;;;;;5016099;28;20433;-79
2023/03/23 06:06:43;;;;;;;12.65;2.80;;;9.90;62.50;;;;;;5025613;28;20480;-78
2023/03/23 06:09:11;;;;;;;13.05;3.38;;;9.90;62.50;;;;;;5009762;28;20037;-79
2023/03/23 06:11:56;;;;;;;11.15;2.38;;;9.90;62.50;;;;;;5019039;28;20088;-77
2023/03/23 06:14:52;;;;;;;9.90;2.88;;;9.90;62.50;;;;;;4973765;28;20039;-78
2023/03/23 06:17:26;;;;;;;11.35;2.17;;;10.00;62.60;;;;;;5023555;28;20037;-79
2023/03/23 06:19:53;;;;;;;11.50;3.95;;;10.00;62.60;;;;;;5026578;28;20386;-77
2023/03/23 06:22:20;;;;;;;7.25;3.08;;;10.00;62.70;;;;;;5021329;28;20033;-79
2023/03/23 06:25:11;;;;;;;10.80;2.88;;;10.10;62.90;;;;;;5020037;28;20057;-82
2023/03/23 06:27:43;;;;;;;14.98;3.50;;;10.10;62.80;;;;;;5025224;28;20033;-80
2023/03/23 06:30:14;;;;;;;10.07;2.72;;;10.10;62.80;;;;;;5029253;28;20049;-80
2023/03/23 06:32:42;;;;;;;19.02;3.53;;;10.20;63.00;;;;;;5032629;28;20035;-82
2023/03/23 06:35:11;;;;;;;9.48;2.85;;;10.30;63.10;;;;;;5027098;28;20029;-79
2023/03/23 06:38:05;;;;;;;13.55;3.50;;;10.30;63.10;;;;;;5033872;28;20040;-78
2023/03/23 06:40:46;;;;;;;13.32;2.63;;;10.40;63.10;;;;;;5025699;28;20449;-78
2023/03/23 06:43:14;;;;;;;9.82;3.00;;;10.40;63.00;;;;;;5028255;28;20067;-78
2023/03/23 06:45:48;;;;;;;11.63;2.97;;;10.60;63.30;;;;;;5031060;28;20123;-77
2023/03/23 06:48:43;;;;;;;13.50;3.75;;;10.60;63.20;;;;;;4993410;28;20050;-78
2023/03/23 06:51:15;;;;;;;14.57;3.50;;;10.70;63.20;;;;;;5020728;28;20051;-77
2023/03/23 06:53:46;;;;;;;17.20;3.50;;;10.70;63.10;;;;;;5027441;28;20041;-80
2023/03/23 06:56:13;;;;;;;17.33;3.88;;;10.80;63.30;;;;;;5051001;28;20039;-82
2023/03/23 06:58:41;;;;;;;16.38;3.88;;;10.90;63.40;;;;;;5036924;28;20123;-81
2023/03/23 07:01:09;;;;;;;15.07;4.78;;;11.00;63.60;;;;;;5045657;28;20296;-78
2023/03/23 07:03:40;;;;;;;15.80;4.07;;;11.10;63.90;;;;;;5025986;28;20035;-79
2023/03/23 07:06:08;;;;;;;16.50;3.95;;;11.20;64.40;;;;;;5035649;28;20025;-82
2023/03/23 07:08:41;;;;;;;16.77;5.10;;;11.30;64.90;;;;;;5027131;28;20037;-82
2023/03/23 07:11:14;;;;;;;20.48;4.68;;;11.50;65.40;;;;;;5040707;28;20051;-83
2023/03/23 07:13:42;;;;;;;18.85;3.90;;;11.80;66.20;;;;;;5039622;28;20028;-83
2023/03/23 07:16:10;;;;;;;17.20;4.55;;;12.00;66.80;;;;;;5044844;28;20040;-84
2023/03/23 07:18:37;;;;;;;16.55;4.88;;;12.30;67.40;;;;;;5029030;28;20037;-83
2023/03/23 07:21:06;;;;;;;17.00;4.13;;;12.60;67.80;;;;;;5031472;28;20029;-83
2023/03/23 07:23:32;;;;;;;13.95;4.15;;;12.80;68.00;;;;;;5041051;28;20039;-86
2023/03/23 07:26:04;;;;;;;24.60;4.85;;;13.00;68.10;;;;;;5046890;28;20369;-86
2023/03/23 07:28:47;;;;;;;12.02;3.47;;;13.30;68.40;;;;;;5031498;28;20439;-85
2023/03/23 07:31:24;;;;;;;15.68;4.35;;;13.60;68.60;;;;;;5014400;28;20163;-82
2023/03/23 07:33:52;;;;;;;16.30;3.90;;;13.90;68.80;;;;;;5032908;28;20033;-79
2023/03/23 07:36:37;;;;;;;16.35;4.40;;;14.10;68.70;;;;;;5040149;28;20140;-81
2023/03/23 07:39:08;;;;;;;16.60;4.03;;;14.20;68.40;;;;;;5022534;28;20590;-85
2023/03/23 07:41:35;;;;;;;12.95;4.50;;;14.30;68.20;;;;;;5029817;28;20045;-83
2023/03/23 07:44:11;;;;;;;15.10;3.45;;;14.40;68.20;;;;;;5013370;28;20388;-84
2023/03/23 07:46:41;;;;;;;16.30;3.80;;;14.50;68.10;;;;;;5014589;28;20061;-85
2023/03/23 07:49:14;;;;;;;18.17;5.38;;;14.50;68.00;;;;;;5033059;28;20168;-82
2023/03/23 07:51:46;;;;;;;11.93;4.03;;;14.60;68.00;;;;;;5009323;28;20497;-81
2023/03/23 07:54:17;;;;;;;13.52;4.05;;;14.60;67.70;;;;;;5032114;28;20033;-83
2023/03/23 07:56:57;;;;;;;14.25;3.70;;;14.60;67.50;;;;;;5023125;28;20041;-82
2023/03/23 07:59:31;;;;;;;14.70;4.60;;;14.50;67.20;;;;;;5006794;28;20328;-82
2023/03/23 08:01:59;;;;;;;12.40;3.47;;;14.50;67.10;;;;;;5007216;28;20510;-80
2023/03/23 08:04:27;;;;;;;12.15;3.38;;;14.60;67.20;;;;;;5023935;28;20197;-82
2023/03/23 08:07:12;;;;;;;18.08;4.00;;;14.60;66.90;;;;;;5008617;28;20222;-83
2023/03/23 08:09:58;;;;;;;11.23;3.10;;;14.70;66.80;;;;;;5024320;28;20578;-78
2023/03/23 08:12:29;;;;;;;12.50;3.00;;;14.70;66.60;;;;;;5020147;28;20033;-78
2023/03/23 08:15:14;;;;;;;12.75;4.50;;;14.70;66.40;;;;;;5022289;28;20252;-79
2023/03/23 08:18:00;;;;;;;12.27;4.25;;;14.80;66.50;;;;;;5022619;28;20029;-79
2023/03/23 08:20:45;;;;;;;11.55;3.28;;;14.90;66.40;;;;;;5015617;28;20029;-80
2023/03/23 08:23:36;;;;;;;11.30;3.88;;;15.10;66.40;;;;;;4995981;28;20038;-81
2023/03/23 08:26:22;;;;;;;12.95;3.63;;;15.20;66.30;;;;;;5018853;28;20195;-79
2023/03/23 08:29:07;;;;;;;12.75;3.15;;;15.30;66.20;;;;;;5017369;28;20381;-78
2023/03/23 08:31:54;;;;;;;12.35;3.08;;;15.50;66.20;;;;;;5026420;28;20080;-78
2023/03/23 08:34:31;;;;;;;10.70;3.92;;;15.70;66.10;;;;;;5024829;28;20029;-79
2023/03/23 08:37:16;;;;;;;11.45;3.05;;;15.80;66.00;;;;;;5019770;28;20121;-79
2023/03/23 08:40:13;;;;;;;14.20;3.05;;;15.90;65.90;;;;;;5022196;28;20041;-79
2023/03/23 08:42:58;;;;;;;12.45;3.50;;;16.00;65.90;;;;;;5014580;28;20100;-79
2023/03/23 08:45:51;;;;;;;9.20;3.20;;;16.10;65.90;;;;;;5027242;28;20372;-79
2023/03/23 08:48:36;;;;;;;9.07;3.15;;;16.20;65.70;;;;;;5034516;28;20126;-79
2023/03/23 08:51:22;;;;;;;10.40;3.28;;;16.40;65.70;;;;;;5021848;28;20054;-79
2023/03/23 08:54:08;;;;;;;10.25;3.28;;;16.60;65.60;;;;;;5047040;28;20032;-79
2023/03/23 08:56:54;;;;;;;22.25;4.18;;;16.80;65.50;;;;;;5040515;28;20048;-83
2023/03/23 08:59:43;;;;;;;13.82;3.85;;;16.90;65.20;;;;;;5043547;28;20520;-79
2023/03/23 09:02:31;;;;;;;11.48;3.55;;;17.00;65.10;;;;;;5053019;28;20033;-82
2023/03/23 09:05:15;;;;;;;11.40;3.22;;;17.10;65.10;;;;;;5022908;28;20030;-80
2023/03/23 09:08:00;;;;;;;13.73;3.97;;;17.20;65.10;;;;;;5025559;28;20107;-82
2023/03/23 09:10:30;;;;;;;13.18;3.88;;;17.40;65.10;;;;;;5022926;28;20562;-81
2023/03/23 09:12:57;;;;;;;11.15;3.65;;;17.50;64.90;;;;;;5004423;28;20467;-81
2023/03/23 09:15:23;;;;;;;13.25;4.57;;;17.70;64.80;;;;;;5021541;28;20647;-80
2023/03/23 09:17:51;;;;;;;11.55;3.42;;;17.90;64.80;;;;;;5021583;28;20380;-80
2023/03/23 09:20:21;;;;;;;9.82;2.95;;;18.00;64.60;;;;;;5019634;28;20037;-79
2023/03/23 09:22:51;;;;;;;8.90;3.15;;;18.00;64.20;;;;;;5019780;28;20038;-80
2023/03/23 09:25:20;;;;;;;8.98;2.67;;;18.00;64.00;;;;;;5019236;28;20119;-81
2023/03/23 09:27:52;;;;;;;14.95;3.55;;;18.10;64.10;;;;;;5019359;28;20033;-83
2023/03/23 09:30:19;;;;;;;10.75;3.47;;;18.00;63.90;;;;;;5027191;28;20029;-86
2023/03/23 09:32:47;;;;;;;12.75;4.07;;;17.90;63.70;;;;;;5037106;28;20033;-85
2023/03/23 09:35:17;;;;;;;8.48;3.10;;;17.90;63.80;;;;;;5023405;28;20037;-84
2023/03/23 09:37:44;;;;;;;10.45;3.35;;;17.90;63.70;;;;;;5026803;28;20087;-83
2023/03/23 09:40:16;;;;;;;11.35;3.17;;;17.80;63.50;;;;;;5009548;28;20037;-83
2023/03/23 09:43:09;;;;;;;17.02;4.13;;;17.80;63.40;;;;;;5025920;28;20063;-83
2023/03/23 09:45:53;;;;;;;13.35;4.07;;;17.90;63.40;;;;;;5024773;28;20179;-81
2023/03/23 09:48:25;;;;;;;17.20;3.28;;;18.00;63.30;;;;;;5028380;28;20050;-79
2023/03/23 09:51:02;;;;;;;14.03;3.53;;;18.10;63.30;;;;;;5022108;28;20045;-80
2023/03/23 09:53:37;;;;;;;8.65;3.17;;;18.10;63.00;;;;;;5014787;28;20025;-80
2023/03/23 09:56:10;;;;;;;7.65;2.70;;;18.10;62.90;;;;;;5028809;28;20105;-82
2023/03/23 09:58:46;;;;;;;10.70;3.47;;;18.20;62.90;;;;;;5017434;28;20026;-79
2023/03/23 10:01:52;;;;;;;10.43;3.67;;;18.20;62.80;;;;;;5026870;28;20057;-80
2023/03/23 10:04:33;;;;;;;10.88;3.25;;;18.20;62.50;;;;;;4959124;28;20031;-80
2023/03/23 10:07:09;;;;;;;11.43;4.25;;;18.20;62.50;;;;;;4955111;28;20750;-82
2023/03/23 10:09:38;;;;;;;12.90;3.17;;;18.20;62.50;;;;;;4991235;28;20571;-83
2023/03/23 10:12:56;;;;;;;8.02;3.35;;;18.20;62.50;;;;;;5015390;28;20041;-84
2023/03/23 10:15:35;;;;;;;8.73;3.42;;;18.30;62.20;;;;;;4997501;28;20033;-81
2023/03/23 10:18:29;;;;;;;8.63;2.95;;;18.30;62.30;;;;;;5006236;28;20028;-81
2023/03/23 10:21:00;;;;;;;10.32;3.00;;;18.30;62.50;;;;;;5023570;28;20500;-81
2023/03/23 10:23:35;;;;;;;10.52;2.90;;;18.40;62.70;;;;;;5021980;28;20037;-80
2023/03/23 10:26:13;;;;;;;8.43;3.40;;;18.50;62.80;;;;;;5024296;28;20606;-80
2023/03/23 10:28:45;;;;;;;6.55;2.95;;;18.60;63.40;;;;;;5024929;28;20055;-85
2023/03/23 10:31:15;;;;;;;;;;;18.70;62.90;;;;;;5020303;28;20045;-82
2023/03/23 10:33:45;;;;;;;11.77;2.67;;;18.80;62.90;;;;;;5015363;28;19919;-77
2023/03/23 10:36:24;;;;;;;12.38;3.15;;;18.80;62.70;;;;;;5018960;28;20026;-78
2023/03/23 10:38:58;;;;;;;9.55;3.28;;;18.80;62.50;;;;;;5016985;28;20062;-77
2023/03/23 10:41:24;;;;;;;8.98;3.60;;;18.80;62.60;;;;;;5015663;28;20045;-78
2023/03/23 10:43:54;;;;;;;8.32;2.95;;;18.90;62.60;;;;;;5024882;28;20209;-77
2023/03/23 10:46:29;;;;;;;8.15;3.28;;;19.00;62.60;;;;;;5028908;28;20029;-77
2023/03/23 10:48:58;;;;;;;7.75;3.13;;;19.10;62.50;;;;;;5026740;28;20026;-78
2023/03/23 10:51:33;;;;;;;10.05;3.10;;;19.20;62.50;;;;;;5010340;28;20190;-78
2023/03/23 10:54:01;;;;;;;8.93;3.60;;;19.40;62.50;;;;;;5001709;28;20061;-76
2023/03/23 10:56:40;;;;;;;7.55;3.03;;;19.50;62.30;;;;;;5014322;28;20036;-78
2023/03/23 10:59:28;;;;;;;9.82;3.33;;;19.60;62.00;;;;;;5023774;28;20029;-78
2023/03/23 11:02:03;;;;;;;9.32;2.78;;;19.70;61.70;;;;;;5025087;28;20424;-77
2023/03/23 11:04:31;;;;;;;7.32;2.30;;;19.80;61.70;;;;;;5011392;28;20053;-79
2023/03/23 11:07:02;;;;;;;8.95;3.65;;;19.80;61.70;;;;;;5027382;28;20145;-79
2023/03/23 11:09:50;;;;;;;6.57;2.75;;;19.80;61.50;;;;;;5007728;28;21308;-78
2023/03/23 11:12:19;;;;;;;8.55;2.78;;;19.80;61.50;;;;;;5001278;28;20038;-79
2023/03/23 11:14:45;;;;;;;7.13;3.53;;;19.80;61.60;;;;;;5029535;28;20041;-79
2023/03/23 11:17:41;;;;;;;8.70;2.65;;;19.90;61.60;;;;;;5007203;28;20520;-79
2023/03/23 11:20:13;;;;;;;11.65;3.97;;;20.10;61.30;;;;;;5017303;28;20057;-77
2023/03/23 11:22:40;;;;;;;8.40;2.70;;;20.20;61.30;;;;;;5018659;28;20057;-79
2023/03/23 11:25:10;;;;;;;8.18;2.75;;;20.30;61.20;;;;;;4996755;28;20072;-78
2023/03/23 11:27:39;;;;;;;10.88;3.17;;;20.40;61.10;;;;;;5002613;28;20179;-77
2023/03/23 11:30:24;;;;;;;9.63;2.83;;;20.50;60.90;;;;;;5020269;28;20029;-77
2023/03/23 11:32:52;;;;;;;8.38;3.00;;;20.70;60.70;;;;;;5026595;28;20041;-78
2023/03/23 11:35:25;;;;;;;8.93;2.90;;;21.00;60.70;;;;;;5001933;28;20379;-78
2023/03/23 11:37:55;;;;;;;8.95;3.30;;;21.10;60.30;;;;;;5022701;28;20045;-78
2023/03/23 11:40:25;;;;;;;8.43;3.42;;;21.20;60.10;;;;;;5022137;28;20392;-78
2023/03/23 11:43:07;;;;;;;8.95;2.58;;;21.30;59.90;;;;;;5001174;28;20620;-79
2023/03/23 11:45:47;;;;;;;9.52;3.15;;;21.30;59.40;;;;;;5018646;28;20033;-78
2023/03/23 11:48:45;;;;;;;7.60;2.50;;;21.30;59.80;;;;;;5019010;28;20042;-79
2023/03/23 11:51:41;;;;;;;9.10;2.25;;;21.20;59.10;;;;;;5003831;28;20041;-82
2023/03/23 11:54:48;;;;;;;10.77;3.42;;;21.20;58.90;;;;;;5024899;28;20540;-81
2023/03/23 11:57:15;;;;;;;10.43;3.80;;;21.20;58.80;;;;;;4988178;28;20037;-81
2023/03/23 11:59:42;;;;;;;10.52;3.42;;;21.20;58.90;;;;;;5027463;28;20196;-79
2023/03/23 12:02:20;;;;;;;9.52;3.15;;;21.10;58.60;;;;;;5006327;28;20037;-81
2023/03/23 12:05:01;;;;;;;10.90;3.80;;;21.00;58.20;;;;;;5022461;28;20094;-81
2023/03/23 12:07:39;;;;;;;10.63;3.78;;;20.90;58.30;;;;;;5005134;28;20193;-82
2023/03/23 12:10:24;;;;;;;11.57;3.60;;;20.70;58.10;;;;;;5018204;28;20052;-82
2023/03/23 12:12:55;;;;;;;10.45;3.50;;;20.60;58.00;;;;;;5002949;28;20045;-81
2023/03/23 12:15:45;;;;;;;8.75;3.53;;;20.50;58.10;;;;;;5005161;28;20025;-80
2023/03/23 12:18:45;;;;;;;9.35;3.15;;;20.40;57.80;;;;;;5023437;28;20037;-80
2023/03/23 12:21:27;;;;;;;13.73;4.00;;;20.40;57.80;;;;;;5015587;28;20520;-79
2023/03/23 12:24:04;;;;;;;11.15;3.60;;;20.60;58.20;;;;;;4998464;28;20033;-79
2023/03/23 12:26:37;;;;;;;11.07;3.90;;;20.70;58.10;;;;;;4999176;28;20034;-80
2023/03/23 12:29:13;;;;;;;6.22;2.50;;;20.80;58.10;;;;;;5000022;28;20144;-82
2023/03/23 12:31:57;;;;;;;8.90;3.28;;;20.90;57.90;;;;;;5029651;28;20355;-82
2023/03/23 12:34:44;;;;;;;13.77;3.95;;;20.90;57.80;;;;;;4995215;28;20083;-81
2023/03/23 12:37:41;;;;;;;7.60;2.80;;;20.90;57.80;;;;;;5014923;28;20041;-80
2023/03/23 12:40:25;;;;;;;8.23;2.92;;;21.00;57.60;;;;;;4998400;28;20750;-79
2023/03/23 12:43:33;;;;;;;11.27;3.47;;;21.10;57.90;;;;;;5022659;28;20196;-79
2023/03/23 12:46:09;;;;;;;13.43;4.18;;;21.30;57.70;;;;;;5012504;28;20037;-79
2023/03/23 12:48:41;;;;;;;9.02;3.75;;;21.40;57.70;;;;;;5035347;28;20133;-81
2023/03/23 12:51:14;;;;;;;10.88;3.20;;;21.60;57.70;;;;;;5022603;28;20044;-84
2023/03/23 12:54:00;;;;;;;;;;;21.70;57.40;;;;;;5026417;28;20063;-82
2023/03/23 12:56:45;;;;;;;9.90;3.63;;;21.70;57.40;;;;;;5032158;28;19981;-84
2023/03/23 12:59:23;;;;;;;11.70;3.45;;;21.70;57.10;;;;;;5047037;28;20347;-81
2023/03/23 13:02:06;;;;;;;12.80;3.65;;;21.60;57.10;;;;;;5026979;28;20396;-80
2023/03/23 13:04:38;;;;;;;7.78;2.70;;;21.50;57.00;;;;;;5026286;28;20246;-80
2023/03/23 13:07:12;;;;;;;10.15;3.40;;;21.40;57.10;;;;;;5041883;28;20116;-79
2023/03/23 13:10:03;;;;;;;8.73;2.72;;;21.50;57.40;;;;;;5028388;28;20075;-82
2023/03/23 13:12:32;;;;;;;10.52;2.90;;;21.50;57.10;;;;;;5009932;28;20037;-81
2023/03/23 13:14:58;;;;;;;8.68;3.13;;;21.60;57.30;;;;;;5007805;28;20036;-81
2023/03/23 13:17:47;;;;;;;10.85;4.18;;;21.70;57.20;;;;;;5044108;28;20086;-82
2023/03/23 13:20:48;;;;;;;10.63;3.78;;;21.80;56.90;;;;;;5025540;28;20513;-84
2023/03/23 13:23:23;;;;;;;8.88;2.97;;;21.80;56.70;;;;;;5025805;28;20043;-83